Aviation Digital Data Service (ADDS)

Output produced by METARs form (1333 UTC 19 February 2020)
found at http://aviationweather.gov/metar/data/
 
KGUC 191124Z 1912/2012 06005KT P6SM SCT150 
     FM191800 00000KT P6SM FEW150 
     FM192100 26005KT P6SM SCT150